LiveATC.Net - Listen to live air traffic control over the Internet! Contact for advertising information

ICAO: SBSP  IATA: CGH   Airport: Congonhas Airport
City: Sao Paulo
Country: Brazil   Continent: South America
SBSP METAR Weather: SBSP 250800Z VRB02KT 9999 FEW009 BKN011 OVC014 20/18 Q1011
SBSP Flight Activity (FlightAware)
SBSP Approach
Feed Status: UP   Listeners: 2
Listen right in your browser - requires Flash (in browser, requires Flash)
Click here to listen with your own player (launches your MP3 player)
SBSP Approach Audio Archives
Sao Paulo Approach (Final) 0100Z-0900Z129.750
Sao Paulo Approach (Final) 0900-0100Z119.050
Sao Paulo Approach (Final) 0900-0100Z133.850


Unauthorized use prohibited. See Terms of Service

Find LiveATC Audio Streams

Airport/ARTCC Code

(e.g., 124.400, 128.75)
Site-wide search

Browse LiveATC Feeds
LiveATC Coverage Map
Top 50 LiveATC Feeds
Bad Weather Areas

Offer a LiveATC Feed
Press Inquiries

LiveATC on iPhone
LiveATC on Android

Windows Phone
Windows 8/10

LiveATC Mobile
(Mobile browser)

ATC Audio Archives
Interesting Recordings

LiveATC Forums

Home Page
Make a Donation
LiveATC Bookstore

Terms of Use
Privacy Policy

ATC/Radar Sites
U.S. ARTCC Freqs
Canadian Air Freqs


FAA Airport Status
Nat'l Airspace Status
Arrival Demand Charts

Server Software By:

Please make a donation to help us keep growing!